createdAt,value
2022-08-31T00:02:37.106Z,0.90
2022-08-31T00:05:03.886Z,1.10
2022-08-31T00:07:31.638Z,0.80
2022-08-31T00:09:58.052Z,0.98
2022-08-31T00:12:24.404Z,1.33
2022-08-31T00:14:50.931Z,1.00
2022-08-31T00:17:17.394Z,0.98
2022-08-31T00:19:43.943Z,0.95
2022-08-31T00:22:10.356Z,1.20
2022-08-31T00:24:36.765Z,1.17
2022-08-31T00:27:03.233Z,1.40
2022-08-31T00:29:29.682Z,1.25
2022-08-31T00:31:56.092Z,1.13
2022-08-31T00:34:22.922Z,1.08
2022-08-31T00:36:49.513Z,1.00
2022-08-31T00:39:16.147Z,1.02
2022-08-31T00:41:43.741Z,1.10
2022-08-31T00:44:11.220Z,1.08
2022-08-31T00:46:39.714Z,1.05
2022-08-31T00:49:11.060Z,0.93
2022-08-31T00:52:04.003Z,1.00
2022-08-31T00:54:33.450Z,0.95
2022-08-31T00:57:00.041Z,1.10
2022-08-31T00:59:27.027Z,1.20
2022-08-31T01:01:53.634Z,1.30
2022-08-31T01:04:20.126Z,1.00
2022-08-31T01:06:47.142Z,1.45
2022-08-31T01:09:14.173Z,1.00
2022-08-31T01:11:43.398Z,1.20
2022-08-31T01:14:11.055Z,1.05
2022-08-31T01:16:42.903Z,0.95
2022-08-31T01:19:38.790Z,1.10
2022-08-31T01:22:12.427Z,1.40
2022-08-31T01:24:40.438Z,1.38
2022-08-31T01:27:07.845Z,1.00
2022-08-31T01:29:35.465Z,1.17
2022-08-31T01:32:02.386Z,1.23
2022-08-31T01:34:28.797Z,0.85
2022-08-31T01:36:55.698Z,1.30
2022-08-31T01:39:22.405Z,1.05
2022-08-31T01:41:48.824Z,1.15
2022-08-31T01:44:16.972Z,1.20
2022-08-31T01:46:43.828Z,1.10
2022-08-31T01:49:10.744Z,1.38
2022-08-31T01:51:37.125Z,1.00
2022-08-31T01:54:03.698Z,1.17
2022-08-31T01:56:31.700Z,1.10
2022-08-31T01:58:58.747Z,1.30
2022-08-31T02:01:34.034Z,1.10
2022-08-31T02:04:01.555Z,1.35
2022-08-31T02:06:28.039Z,1.17
2022-08-31T02:08:54.431Z,1.20
2022-08-31T02:11:20.828Z,1.20
2022-08-31T02:13:47.662Z,1.10
2022-08-31T02:16:14.127Z,1.20
2022-08-31T02:18:40.568Z,1.40
2022-08-31T02:21:06.962Z,1.20
2022-08-31T02:23:33.389Z,1.00
2022-08-31T02:26:00.472Z,1.00
2022-08-31T02:28:26.867Z,1.10
2022-08-31T02:30:53.271Z,1.20
2022-08-31T02:33:19.840Z,1.13
2022-08-31T02:35:46.306Z,0.95
2022-08-31T02:38:18.342Z,1.13
2022-08-31T02:40:45.596Z,1.40
2022-08-31T02:43:17.518Z,1.08
2022-08-31T02:45:53.626Z,1.10
2022-08-31T02:48:20.899Z,1.08
2022-08-31T02:50:48.595Z,1.00
2022-08-31T02:53:16.267Z,1.10
2022-08-31T02:55:43.061Z,1.27
2022-08-31T02:58:10.216Z,1.23
2022-08-31T03:00:37.549Z,1.30
2022-08-31T03:03:04.199Z,1.40
2022-08-31T03:05:30.684Z,1.20
2022-08-31T03:07:57.361Z,1.23
2022-08-31T03:10:24.751Z,1.00
2022-08-31T03:12:51.904Z,1.10
2022-08-31T03:15:19.701Z,1.10
2022-08-31T03:17:46.640Z,1.10
2022-08-31T03:20:13.576Z,1.10
2022-08-31T03:22:40.212Z,1.00
2022-08-31T03:25:12.300Z,1.20
2022-08-31T03:27:40.833Z,1.00
2022-08-31T03:30:10.484Z,1.15
2022-08-31T03:32:36.881Z,0.90
2022-08-31T03:35:03.598Z,0.98
2022-08-31T03:37:30.049Z,1.05
2022-08-31T03:39:56.437Z,1.20
2022-08-31T03:42:22.981Z,1.13
2022-08-31T03:44:51.481Z,1.10
2022-08-31T03:47:19.041Z,1.00
2022-08-31T03:49:45.505Z,1.20
2022-08-31T03:52:11.990Z,1.13
2022-08-31T03:54:38.438Z,1.20
2022-08-31T03:57:05.643Z,1.17
2022-08-31T03:59:32.085Z,1.00
2022-08-31T04:02:00.659Z,1.10
2022-08-31T04:04:27.124Z,1.20
2022-08-31T04:06:53.554Z,0.82
2022-08-31T04:09:20.031Z,1.17
2022-08-31T04:11:46.486Z,1.20
2022-08-31T04:14:14.922Z,0.90
2022-08-31T04:16:43.742Z,1.27
2022-08-31T04:19:16.050Z,1.40
2022-08-31T04:21:44.257Z,1.90
2022-08-31T04:24:11.923Z,1.50
2022-08-31T04:26:38.629Z,1.40
2022-08-31T04:29:08.584Z,1.02
2022-08-31T04:31:37.880Z,1.00
2022-08-31T04:34:05.095Z,1.40
2022-08-31T04:36:31.689Z,1.20
2022-08-31T04:38:59.230Z,1.20
2022-08-31T04:41:26.882Z,1.30
2022-08-31T04:43:54.725Z,1.48
2022-08-31T04:46:24.653Z,1.30
2022-08-31T04:48:51.065Z,1.10
2022-08-31T04:51:18.678Z,1.30
2022-08-31T04:53:45.122Z,1.40
2022-08-31T04:56:19.666Z,0.90
2022-08-31T04:58:46.057Z,1.25
2022-08-31T05:01:13.479Z,1.05
2022-08-31T05:03:40.762Z,1.10
2022-08-31T05:06:12.132Z,1.10
2022-08-31T05:08:38.572Z,1.17
2022-08-31T05:11:09.247Z,1.20
2022-08-31T05:13:37.731Z,1.30
2022-08-31T05:16:05.218Z,1.30
2022-08-31T05:18:32.146Z,1.20
2022-08-31T05:20:58.811Z,1.50
2022-08-31T05:23:25.353Z,1.13
2022-08-31T05:25:51.865Z,1.30
2022-08-31T05:28:23.584Z,1.17
2022-08-31T05:30:50.118Z,1.50
2022-08-31T05:33:16.942Z,1.23
2022-08-31T05:35:44.741Z,1.10
2022-08-31T05:38:11.094Z,1.10
2022-08-31T05:40:37.532Z,1.60
2022-08-31T05:43:04.015Z,1.40
2022-08-31T05:45:30.720Z,1.20
2022-08-31T05:47:57.100Z,1.40
2022-08-31T05:50:23.616Z,1.90
2022-08-31T05:52:50.016Z,1.38
2022-08-31T05:55:16.485Z,1.77
2022-08-31T05:57:43.024Z,1.10
2022-08-31T06:00:11.182Z,1.20
2022-08-31T06:02:39.762Z,1.33
2022-08-31T06:05:06.336Z,1.50
2022-08-31T06:07:33.210Z,1.30
2022-08-31T06:09:59.607Z,1.20
2022-08-31T06:12:26.371Z,1.00
2022-08-31T06:14:53.637Z,1.10
2022-08-31T06:17:20.118Z,1.23
2022-08-31T06:19:46.664Z,1.30
2022-08-31T06:22:13.045Z,1.30
2022-08-31T06:24:39.561Z,1.40
2022-08-31T06:27:07.330Z,1.05
2022-08-31T06:29:33.942Z,1.10
2022-08-31T06:32:00.665Z,1.20
2022-08-31T06:34:29.118Z,1.42
2022-08-31T06:36:55.696Z,1.40
2022-08-31T06:39:22.078Z,1.48
2022-08-31T06:41:49.240Z,1.20
2022-08-31T06:44:15.649Z,1.48
2022-08-31T06:46:42.254Z,1.30
2022-08-31T06:49:14.313Z,1.00
2022-08-31T06:51:40.705Z,1.10
2022-08-31T06:54:27.945Z,1.15
2022-08-31T06:56:56.280Z,1.85
2022-08-31T06:59:26.436Z,1.20
2022-08-31T07:01:54.932Z,1.02
2022-08-31T07:04:21.496Z,1.17
2022-08-31T07:06:47.915Z,1.10
2022-08-31T07:09:18.406Z,1.17
2022-08-31T07:11:52.144Z,1.10
2022-08-31T07:14:22.117Z,0.90
2022-08-31T07:16:49.005Z,1.38
2022-08-31T07:19:15.800Z,0.90
2022-08-31T07:21:43.781Z,0.90
2022-08-31T07:24:10.891Z,0.90
2022-08-31T07:26:42.440Z,1.10
2022-08-31T07:29:10.022Z,0.93
2022-08-31T07:31:49.186Z,0.93
2022-08-31T07:34:36.264Z,0.85
2022-08-31T07:37:22.666Z,1.13
2022-08-31T07:40:08.289Z,0.90
2022-08-31T07:42:36.849Z,1.08
2022-08-31T07:45:05.651Z,1.10
2022-08-31T07:47:35.288Z,0.90
2022-08-31T07:50:01.959Z,0.98
2022-08-31T07:52:29.703Z,1.02
2022-08-31T07:55:06.399Z,1.27
2022-08-31T07:57:37.258Z,0.80
2022-08-31T08:00:09.203Z,1.10
2022-08-31T08:02:39.275Z,0.80
2022-08-31T08:05:07.471Z,0.93
2022-08-31T08:07:34.957Z,1.20
2022-08-31T08:10:02.933Z,0.98
2022-08-31T08:12:36.409Z,1.20
2022-08-31T08:15:04.729Z,0.95
2022-08-31T08:17:31.429Z,1.10
2022-08-31T08:19:57.894Z,0.93
2022-08-31T08:22:48.461Z,0.98
2022-08-31T08:25:12.448Z,1.02
2022-08-31T08:27:39.008Z,0.70
2022-08-31T08:30:09.462Z,0.80
2022-08-31T08:32:36.611Z,1.00
2022-08-31T08:35:03.968Z,0.80
2022-08-31T08:37:54.274Z,1.00
2022-08-31T08:40:30.945Z,0.90
2022-08-31T08:42:59.828Z,0.70
2022-08-31T08:45:26.386Z,0.82
2022-08-31T08:47:54.510Z,0.85
2022-08-31T08:50:22.026Z,0.82
2022-08-31T08:52:48.447Z,0.70
2022-08-31T08:55:16.934Z,0.75
2022-08-31T08:57:44.780Z,0.70
2022-08-31T09:00:16.798Z,0.60
2022-08-31T09:02:46.804Z,0.73
2022-08-31T09:05:30.780Z,0.68
2022-08-31T09:08:18.000Z,0.75
2022-08-31T09:10:45.827Z,0.90
2022-08-31T09:13:21.829Z,0.73
2022-08-31T09:15:52.657Z,0.65
2022-08-31T09:18:30.461Z,0.70
2022-08-31T09:21:04.943Z,0.50
2022-08-31T09:23:35.325Z,0.90
2022-08-31T09:26:08.250Z,0.60
2022-08-31T09:28:37.460Z,0.52
2022-08-31T09:31:04.010Z,0.60
2022-08-31T09:33:32.996Z,0.50
2022-08-31T09:36:17.727Z,0.60
2022-08-31T09:38:46.983Z,0.50
2022-08-31T09:41:28.668Z,0.60
2022-08-31T09:44:15.317Z,0.65
2022-08-31T09:46:46.754Z,0.52
2022-08-31T09:49:26.260Z,0.80
2022-08-31T09:51:52.697Z,0.68
2022-08-31T09:54:43.079Z,0.82
2022-08-31T09:57:12.592Z,0.47
2022-08-31T09:59:51.601Z,0.65
2022-08-31T10:02:22.186Z,0.50
2022-08-31T10:04:54.610Z,0.70
2022-08-31T10:07:31.275Z,0.60
2022-08-31T10:09:59.644Z,0.63
2022-08-31T10:12:32.100Z,0.50
2022-08-31T10:15:02.492Z,0.52
2022-08-31T10:17:38.515Z,0.70
2022-08-31T10:20:19.661Z,0.45
2022-08-31T10:22:50.399Z,0.60
2022-08-31T10:25:26.951Z,0.50
2022-08-31T10:28:12.094Z,0.63
2022-08-31T10:30:41.720Z,0.75
2022-08-31T10:33:08.121Z,0.45
2022-08-31T10:35:42.693Z,0.50
2022-08-31T10:38:21.209Z,0.65
2022-08-31T10:41:06.615Z,0.60
2022-08-31T10:44:10.199Z,0.70
2022-08-31T10:46:37.041Z,0.52
2022-08-31T10:49:04.433Z,0.60
2022-08-31T10:51:51.037Z,0.70
2022-08-31T10:54:28.204Z,0.70
2022-08-31T10:56:59.321Z,0.50
2022-08-31T10:59:46.072Z,0.60
2022-08-31T11:02:22.016Z,0.50
2022-08-31T11:04:51.423Z,0.43
2022-08-31T11:07:39.021Z,0.63
2022-08-31T11:10:20.110Z,0.60
2022-08-31T11:12:52.264Z,0.43
2022-08-31T11:15:24.741Z,0.70
2022-08-31T11:18:10.144Z,0.50
2022-08-31T11:20:39.833Z,0.50
2022-08-31T11:26:47.885Z,0.40
2022-08-31T11:29:47.754Z,0.65
2022-08-31T11:32:28.491Z,0.70
2022-08-31T11:34:56.593Z,0.70
2022-08-31T11:37:41.738Z,0.55
2022-08-31T11:43:45.222Z,0.40
2022-08-31T11:46:27.229Z,0.35
2022-08-31T11:48:54.507Z,0.40
2022-08-31T11:51:38.627Z,0.50
2022-08-31T11:54:26.736Z,0.63
2022-08-31T11:56:57.545Z,0.40
2022-08-31T11:59:32.682Z,0.40
2022-08-31T12:02:19.207Z,0.55
2022-08-31T12:04:47.512Z,0.40
2022-08-31T12:07:13.876Z,0.60
2022-08-31T12:09:45.865Z,0.50
2022-08-31T12:12:22.666Z,0.50
2022-08-31T12:14:50.142Z,0.50
2022-08-31T12:17:36.774Z,0.50
2022-08-31T12:20:22.031Z,0.40
2022-08-31T12:29:37.171Z,0.50
2022-08-31T12:32:39.979Z,0.75
2022-08-31T12:35:25.585Z,0.60
2022-08-31T12:38:18.210Z,0.60
2022-08-31T12:40:52.241Z,0.40
2022-08-31T12:43:31.681Z,0.50
2022-08-31T12:46:04.236Z,0.30
2022-08-31T12:48:45.573Z,0.30
2022-08-31T12:51:36.031Z,0.50
2022-08-31T12:54:02.562Z,0.40
2022-08-31T12:56:44.201Z,0.30
2022-08-31T12:59:13.806Z,0.30
2022-08-31T13:01:43.260Z,0.60
2022-08-31T13:04:10.687Z,0.40
2022-08-31T13:06:38.243Z,0.50
2022-08-31T13:09:05.650Z,0.40
2022-08-31T13:11:42.709Z,0.30
2022-08-31T13:14:10.937Z,0.50
2022-08-31T13:16:45.301Z,0.50
2022-08-31T13:19:19.242Z,0.32
2022-08-31T13:21:49.922Z,0.55
2022-08-31T13:24:16.307Z,0.57
2022-08-31T13:26:43.810Z,0.60
2022-08-31T13:29:15.783Z,0.73
2022-08-31T13:31:50.041Z,0.60
2022-08-31T13:34:16.666Z,0.50
2022-08-31T13:36:47.038Z,0.65
2022-08-31T13:39:26.749Z,0.60
2022-08-31T13:41:59.797Z,0.70
2022-08-31T13:44:33.173Z,0.85
2022-08-31T13:47:02.938Z,0.60
2022-08-31T13:49:37.483Z,0.70
2022-08-31T13:52:19.165Z,0.80
2022-08-31T13:54:57.381Z,0.60
2022-08-31T13:57:26.484Z,0.75
2022-08-31T13:59:52.894Z,0.88
2022-08-31T14:02:19.517Z,0.75
2022-08-31T14:05:00.387Z,0.70
2022-08-31T14:07:39.038Z,0.75
2022-08-31T14:10:15.023Z,0.80
2022-08-31T14:13:00.225Z,0.60
2022-08-31T14:15:35.422Z,0.75
2022-08-31T14:18:25.447Z,0.70
2022-08-31T14:21:20.711Z,0.80
2022-08-31T14:23:56.253Z,0.90
2022-08-31T14:26:26.293Z,0.77
2022-08-31T14:28:56.350Z,0.90
2022-08-31T14:31:34.836Z,0.80
2022-08-31T14:34:01.994Z,0.50
2022-08-31T14:36:32.399Z,0.70
2022-08-31T14:38:58.918Z,0.55
2022-08-31T14:41:34.425Z,0.77
2022-08-31T14:44:07.029Z,0.60
2022-08-31T14:46:34.416Z,0.65
2022-08-31T14:49:00.883Z,0.70
2022-08-31T14:51:28.094Z,0.40
2022-08-31T14:53:56.850Z,0.60
2022-08-31T14:56:26.994Z,0.60
2022-08-31T14:58:54.424Z,0.47
2022-08-31T15:01:21.416Z,0.60
2022-08-31T15:03:47.805Z,0.68
2022-08-31T15:06:14.463Z,0.60
2022-08-31T15:08:41.214Z,0.52
2022-08-31T15:11:08.018Z,0.50
2022-08-31T15:13:38.256Z,0.70
2022-08-31T15:16:05.809Z,0.60
2022-08-31T15:18:33.794Z,0.60
2022-08-31T15:21:02.181Z,0.75
2022-08-31T15:23:29.831Z,0.50
2022-08-31T15:26:06.420Z,0.70
2022-08-31T15:28:37.274Z,1.08
2022-08-31T15:31:09.108Z,0.40
2022-08-31T15:33:39.790Z,0.57
2022-08-31T15:36:09.210Z,0.50
2022-08-31T15:38:36.766Z,0.50
2022-08-31T15:41:04.815Z,0.40
2022-08-31T15:43:32.018Z,0.52
2022-08-31T15:45:58.584Z,0.70
2022-08-31T15:48:45.087Z,0.40
2022-08-31T15:51:20.688Z,0.45
2022-08-31T15:54:11.595Z,0.40
2022-08-31T15:56:39.999Z,0.43
2022-08-31T15:59:13.096Z,0.50
2022-08-31T16:01:40.554Z,0.40
2022-08-31T16:04:07.879Z,0.30
2022-08-31T16:06:34.892Z,0.30
2022-08-31T16:09:02.406Z,0.40
2022-08-31T16:11:31.070Z,0.30
2022-08-31T16:14:01.002Z,0.30
2022-08-31T16:16:31.009Z,0.22
2022-08-31T16:18:58.441Z,0.30
2022-08-31T16:21:25.638Z,0.30
2022-08-31T16:24:00.781Z,0.30
2022-08-31T16:26:28.703Z,0.40
2022-08-31T16:28:55.738Z,0.30
2022-08-31T16:31:24.451Z,0.20
2022-08-31T16:33:51.227Z,0.25
2022-08-31T16:36:21.374Z,0.20
2022-08-31T16:38:48.017Z,0.30
2022-08-31T16:41:15.972Z,0.20
2022-08-31T16:43:42.339Z,0.38
2022-08-31T16:46:30.439Z,0.38
2022-08-31T16:49:15.222Z,0.40
2022-08-31T16:51:44.563Z,0.50
2022-08-31T16:54:14.502Z,0.20
2022-08-31T16:56:42.012Z,0.30
2022-08-31T16:59:17.317Z,0.30
2022-08-31T17:01:45.099Z,0.50
2022-08-31T17:04:13.403Z,0.35
2022-08-31T17:06:40.939Z,0.30
2022-08-31T17:09:19.193Z,0.38
2022-08-31T17:11:49.974Z,0.30
2022-08-31T17:14:21.954Z,0.40
2022-08-31T17:16:50.728Z,0.30
2022-08-31T17:19:19.808Z,0.30
2022-08-31T17:21:50.717Z,0.52
2022-08-31T17:26:43.839Z,0.32
2022-08-31T17:29:10.603Z,0.30
2022-08-31T17:31:44.907Z,0.40
2022-08-31T17:34:14.657Z,0.40
2022-08-31T17:36:42.393Z,0.40
2022-08-31T17:39:10.137Z,0.40
2022-08-31T17:41:37.585Z,0.40
2022-08-31T17:44:04.465Z,0.40
2022-08-31T17:46:31.029Z,0.63
2022-08-31T17:48:59.395Z,0.38
2022-08-31T17:51:28.514Z,0.30
2022-08-31T17:53:57.925Z,0.40
2022-08-31T17:56:25.210Z,0.50
2022-08-31T17:58:54.642Z,0.40
2022-08-31T18:01:30.327Z,0.38
2022-08-31T18:03:58.706Z,0.50
2022-08-31T18:06:25.182Z,0.52
2022-08-31T18:08:51.633Z,0.50
2022-08-31T18:11:18.244Z,0.40
2022-08-31T18:13:44.656Z,0.50
2022-08-31T18:16:13.902Z,0.47
2022-08-31T18:18:47.681Z,0.40
2022-08-31T18:21:15.085Z,0.50
2022-08-31T18:23:42.789Z,0.40
2022-08-31T18:26:16.852Z,0.47
2022-08-31T18:28:43.493Z,0.40
2022-08-31T18:31:10.869Z,0.68
2022-08-31T18:33:37.322Z,0.40
2022-08-31T18:36:10.568Z,0.32
2022-08-31T18:38:37.564Z,0.60
2022-08-31T18:41:25.789Z,0.30
2022-08-31T18:44:11.247Z,0.50
2022-08-31T18:46:37.691Z,0.70
2022-08-31T18:49:12.215Z,0.52
2022-08-31T18:51:40.837Z,0.50
2022-08-31T18:54:08.418Z,0.40
2022-08-31T18:56:34.809Z,0.60
2022-08-31T18:59:01.238Z,0.50
2022-08-31T19:01:33.426Z,0.50
2022-08-31T19:04:01.601Z,0.50
2022-08-31T19:06:29.757Z,0.40
2022-08-31T19:08:56.697Z,0.47
2022-08-31T19:11:23.673Z,0.40
2022-08-31T19:13:51.560Z,0.75
2022-08-31T19:16:22.854Z,0.50
2022-08-31T19:18:49.443Z,0.60
2022-08-31T19:21:18.532Z,0.35
2022-08-31T19:23:45.334Z,0.50
2022-08-31T19:26:17.185Z,0.70
2022-08-31T19:28:48.651Z,0.50
2022-08-31T19:31:17.111Z,0.55
2022-08-31T19:33:44.504Z,0.88
2022-08-31T19:36:11.613Z,0.40
2022-08-31T19:38:39.122Z,0.60
2022-08-31T19:41:06.283Z,0.60
2022-08-31T19:43:54.799Z,0.50
2022-08-31T19:46:21.013Z,0.50
2022-08-31T19:48:47.994Z,0.40
2022-08-31T19:51:15.761Z,0.50
2022-08-31T19:53:46.202Z,0.60
2022-08-31T19:56:17.184Z,0.80
2022-08-31T19:58:45.649Z,0.70
2022-08-31T20:01:12.179Z,1.10
2022-08-31T20:03:38.731Z,0.90
2022-08-31T20:06:06.502Z,1.10
2022-08-31T20:08:33.574Z,1.23
2022-08-31T20:11:00.348Z,0.82
2022-08-31T20:13:28.444Z,1.02
2022-08-31T20:15:56.107Z,0.90
2022-08-31T20:18:28.072Z,0.75
2022-08-31T20:20:55.135Z,0.75
2022-08-31T20:23:22.044Z,0.57
2022-08-31T20:25:49.822Z,0.60
2022-08-31T20:28:17.395Z,0.77
2022-08-31T20:30:44.705Z,0.70
2022-08-31T20:33:11.407Z,0.60
2022-08-31T20:35:42.474Z,0.60
2022-08-31T20:40:37.392Z,0.50
2022-08-31T20:43:07.115Z,0.50
2022-08-31T20:45:33.610Z,0.60
2022-08-31T20:48:19.135Z,0.60
2022-08-31T20:50:48.726Z,0.63
2022-08-31T20:53:16.988Z,0.77
2022-08-31T20:55:51.351Z,0.60
2022-08-31T20:58:19.213Z,0.90
2022-08-31T21:00:47.588Z,0.65
2022-08-31T21:03:17.061Z,0.63
2022-08-31T21:05:43.634Z,0.50
2022-08-31T21:08:11.527Z,0.77
2022-08-31T21:10:40.943Z,0.52
2022-08-31T21:13:08.936Z,0.90
2022-08-31T21:15:39.209Z,0.60
2022-08-31T21:18:05.637Z,0.70
2022-08-31T21:20:33.841Z,0.65
2022-08-31T21:23:00.262Z,0.70
2022-08-31T21:25:26.939Z,0.60
2022-08-31T21:27:53.395Z,0.70
2022-08-31T21:30:19.831Z,0.68
2022-08-31T21:32:46.732Z,0.88
2022-08-31T21:35:15.065Z,0.60
2022-08-31T21:37:41.807Z,0.70
2022-08-31T21:40:08.411Z,0.70
2022-08-31T21:42:34.903Z,0.70
2022-08-31T21:45:01.309Z,0.70
2022-08-31T21:47:28.665Z,0.70
2022-08-31T21:49:55.079Z,0.60
2022-08-31T21:52:21.517Z,0.63
2022-08-31T21:54:47.998Z,0.82
2022-08-31T21:57:15.747Z,0.60
2022-08-31T21:59:42.377Z,0.70
2022-08-31T22:02:11.298Z,0.70
2022-08-31T22:04:39.148Z,0.90
2022-08-31T22:07:08.116Z,0.80
2022-08-31T22:09:35.133Z,0.70
2022-08-31T22:12:07.276Z,0.57
2022-08-31T22:14:37.832Z,0.70
2022-08-31T22:17:06.266Z,0.90
2022-08-31T22:19:38.922Z,0.70
2022-08-31T22:22:07.066Z,1.08
2022-08-31T22:24:35.822Z,0.77
2022-08-31T22:27:08.394Z,0.70
2022-08-31T22:29:36.402Z,0.90
2022-08-31T22:32:08.513Z,0.90
2022-08-31T22:34:35.878Z,0.80
2022-08-31T22:37:06.305Z,0.90
2022-08-31T22:39:32.912Z,0.88
2022-08-31T22:42:01.361Z,0.93
2022-08-31T22:44:29.012Z,0.80
2022-08-31T22:46:58.356Z,0.95
2022-08-31T22:49:25.828Z,0.80
2022-08-31T22:51:53.063Z,0.70
2022-08-31T22:54:20.515Z,1.10
2022-08-31T22:56:47.601Z,1.00
2022-08-31T22:59:15.221Z,0.90
2022-08-31T23:01:43.983Z,0.70
2022-08-31T23:04:19.927Z,1.20
2022-08-31T23:06:47.952Z,0.85
2022-08-31T23:09:15.024Z,0.77
2022-08-31T23:11:41.706Z,0.80
2022-08-31T23:14:10.146Z,0.80
2022-08-31T23:16:39.907Z,1.00
2022-08-31T23:19:14.322Z,0.85
2022-08-31T23:21:45.942Z,1.10
2022-08-31T23:24:13.746Z,0.77
2022-08-31T23:26:40.685Z,0.80
2022-08-31T23:29:10.007Z,0.80
2022-08-31T23:31:37.816Z,0.75
2022-08-31T23:34:05.213Z,0.80
2022-08-31T23:36:31.754Z,0.85
2022-08-31T23:38:59.682Z,0.90
2022-08-31T23:41:29.541Z,1.00
2022-08-31T23:43:56.737Z,0.90
2022-08-31T23:46:24.011Z,0.90
2022-08-31T23:48:51.030Z,1.20
2022-08-31T23:51:19.499Z,0.90
2022-08-31T23:53:47.173Z,1.00
2022-08-31T23:56:13.554Z,1.00
2022-08-31T23:58:40.243Z,0.90
